Terminal Aerodrome Forecast
Issued by NWS Huntsville, AL

Home | Current Version | Previous Version | Text Only | Print | Product List | Glossary On
Versions: 1 2 3 4 5 6 7 8 9 10 11 12 13 14 15 16 17
000
FTUS44 KHUN 281404 AAA
TAFHSV
TAF AMD
KHSV 281404Z 2814/0112 16012KT P6SM -SHRA SCT010 OVC030
      TEMPO 2814/2818 3SM -TSRA BKN009CB
     FM282000 18012KT P6SM VCSH OVC010
     FM010500 16014KT P6SM BKN020=

USA.gov is the U.S. government's official web portal to all federal, state and local government web resources and services.